sensor_id;sensor_type;location;lat;lon;timestamp;temperature;humidity
16515;DHT22;8370;52.556;7.970;2023-04-24T00:02:22;11.40;99.90
16515;DHT22;8370;52.556;7.970;2023-04-24T00:04:48;11.30;99.90
16515;DHT22;8370;52.556;7.970;2023-04-24T00:07:14;11.40;99.90
16515;DHT22;8370;52.556;7.970;2023-04-24T00:09:42;11.30;99.90
16515;DHT22;8370;52.556;7.970;2023-04-24T00:12:08;11.30;99.90
16515;DHT22;8370;52.556;7.970;2023-04-24T00:14:34;11.30;99.90
16515;DHT22;8370;52.556;7.970;2023-04-24T00:17:00;11.30;99.90
16515;DHT22;8370;52.556;7.970;2023-04-24T00:19:27;11.40;99.90
16515;DHT22;8370;52.556;7.970;2023-04-24T00:21:53;11.30;99.90
16515;DHT22;8370;52.556;7.970;2023-04-24T00:24:19;11.30;99.90
16515;DHT22;8370;52.556;7.970;2023-04-24T00:26:45;11.30;99.90
16515;DHT22;8370;52.556;7.970;2023-04-24T00:29:10;11.20;99.90
16515;DHT22;8370;52.556;7.970;2023-04-24T00:31:36;11.20;99.90
16515;DHT22;8370;52.556;7.970;2023-04-24T00:34:02;11.30;99.90
16515;DHT22;8370;52.556;7.970;2023-04-24T00:36:28;11.30;99.90
16515;DHT22;8370;52.556;7.970;2023-04-24T00:38:54;11.30;99.90
16515;DHT22;8370;52.556;7.970;2023-04-24T00:41:21;11.30;99.90
16515;DHT22;8370;52.556;7.970;2023-04-24T00:43:47;11.20;99.90
16515;DHT22;8370;52.556;7.970;2023-04-24T00:46:13;11.20;99.90
16515;DHT22;8370;52.556;7.970;2023-04-24T00:48:39;11.20;99.90
16515;DHT22;8370;52.556;7.970;2023-04-24T00:51:05;11.20;99.90
16515;DHT22;8370;52.556;7.970;2023-04-24T00:53:31;11.20;99.90
16515;DHT22;8370;52.556;7.970;2023-04-24T00:55:57;11.10;99.90
16515;DHT22;8370;52.556;7.970;2023-04-24T00:58:23;11.10;99.90
16515;DHT22;8370;52.556;7.970;2023-04-24T01:00:50;11.00;99.90
16515;DHT22;8370;52.556;7.970;2023-04-24T01:03:22;11.10;99.90
16515;DHT22;8370;52.556;7.970;2023-04-24T01:05:48;11.20;99.90
16515;DHT22;8370;52.556;7.970;2023-04-24T01:08:14;11.20;99.90
16515;DHT22;8370;52.556;7.970;2023-04-24T01:10:41;11.20;99.90
16515;DHT22;8370;52.556;7.970;2023-04-24T01:13:08;11.20;99.90
16515;DHT22;8370;52.556;7.970;2023-04-24T01:15:34;11.20;99.90
16515;DHT22;8370;52.556;7.970;2023-04-24T01:17:59;11.20;99.90
16515;DHT22;8370;52.556;7.970;2023-04-24T01:20:25;11.20;99.90
16515;DHT22;8370;52.556;7.970;2023-04-24T01:22:51;11.20;99.90
16515;DHT22;8370;52.556;7.970;2023-04-24T01:25:17;11.20;99.90
16515;DHT22;8370;52.556;7.970;2023-04-24T01:27:43;11.10;99.90
16515;DHT22;8370;52.556;7.970;2023-04-24T01:30:09;11.00;99.90
16515;DHT22;8370;52.556;7.970;2023-04-24T01:32:36;10.90;99.90
16515;DHT22;8370;52.556;7.970;2023-04-24T01:35:02;10.80;99.90
16515;DHT22;8370;52.556;7.970;2023-04-24T01:37:28;10.60;99.90
16515;DHT22;8370;52.556;7.970;2023-04-24T01:39:53;10.50;99.90
16515;DHT22;8370;52.556;7.970;2023-04-24T01:42:19;10.40;99.90
16515;DHT22;8370;52.556;7.970;2023-04-24T01:44:45;10.30;99.90
16515;DHT22;8370;52.556;7.970;2023-04-24T01:47:11;10.30;99.90
16515;DHT22;8370;52.556;7.970;2023-04-24T01:49:38;10.30;99.90
16515;DHT22;8370;52.556;7.970;2023-04-24T01:52:04;10.30;99.90
16515;DHT22;8370;52.556;7.970;2023-04-24T01:54:30;10.30;99.90
16515;DHT22;8370;52.556;7.970;2023-04-24T01:56:55;10.30;99.90
16515;DHT22;8370;52.556;7.970;2023-04-24T01:59:21;10.30;99.90
16515;DHT22;8370;52.556;7.970;2023-04-24T02:01:48;10.30;99.90
16515;DHT22;8370;52.556;7.970;2023-04-24T02:04:14;10.30;99.90
16515;DHT22;8370;52.556;7.970;2023-04-24T02:06:40;10.30;99.90
16515;DHT22;8370;52.556;7.970;2023-04-24T02:09:06;10.30;99.90
16515;DHT22;8370;52.556;7.970;2023-04-24T02:11:31;10.30;99.90
16515;DHT22;8370;52.556;7.970;2023-04-24T02:13:57;10.30;99.90
16515;DHT22;8370;52.556;7.970;2023-04-24T02:16:23;10.30;99.90
16515;DHT22;8370;52.556;7.970;2023-04-24T02:18:48;10.40;99.90
16515;DHT22;8370;52.556;7.970;2023-04-24T02:21:14;10.40;99.90
16515;DHT22;8370;52.556;7.970;2023-04-24T02:23:39;10.40;99.90
16515;DHT22;8370;52.556;7.970;2023-04-24T02:26:05;10.40;99.90
16515;DHT22;8370;52.556;7.970;2023-04-24T02:28:31;10.40;99.90
16515;DHT22;8370;52.556;7.970;2023-04-24T02:30:56;10.40;99.90
16515;DHT22;8370;52.556;7.970;2023-04-24T02:33:22;10.40;99.90
16515;DHT22;8370;52.556;7.970;2023-04-24T02:35:47;10.40;99.90
16515;DHT22;8370;52.556;7.970;2023-04-24T02:38:13;10.50;99.90
16515;DHT22;8370;52.556;7.970;2023-04-24T02:40:38;10.50;99.90
16515;DHT22;8370;52.556;7.970;2023-04-24T02:43:04;10.50;99.90
16515;DHT22;8370;52.556;7.970;2023-04-24T02:45:29;10.50;99.90
16515;DHT22;8370;52.556;7.970;2023-04-24T02:47:55;10.50;99.90
16515;DHT22;8370;52.556;7.970;2023-04-24T02:50:20;10.50;99.90
16515;DHT22;8370;52.556;7.970;2023-04-24T02:52:46;10.50;99.90
16515;DHT22;8370;52.556;7.970;2023-04-24T02:55:11;10.50;99.90
16515;DHT22;8370;52.556;7.970;2023-04-24T02:57:37;10.50;99.90
16515;DHT22;8370;52.556;7.970;2023-04-24T03:00:03;10.50;99.90
16515;DHT22;8370;52.556;7.970;2023-04-24T03:02:28;10.50;99.90
16515;DHT22;8370;52.556;7.970;2023-04-24T03:04:54;10.50;99.90
16515;DHT22;8370;52.556;7.970;2023-04-24T03:07:20;10.50;99.90
16515;DHT22;8370;52.556;7.970;2023-04-24T03:09:46;10.50;99.90
16515;DHT22;8370;52.556;7.970;2023-04-24T03:12:12;10.60;99.90
16515;DHT22;8370;52.556;7.970;2023-04-24T03:14:37;10.60;99.90
16515;DHT22;8370;52.556;7.970;2023-04-24T03:17:03;10.60;99.90
16515;DHT22;8370;52.556;7.970;2023-04-24T03:19:29;10.60;99.90
16515;DHT22;8370;52.556;7.970;2023-04-24T03:21:54;10.60;99.90
16515;DHT22;8370;52.556;7.970;2023-04-24T03:24:20;10.60;99.90
16515;DHT22;8370;52.556;7.970;2023-04-24T03:26:46;10.70;99.90
16515;DHT22;8370;52.556;7.970;2023-04-24T03:29:11;10.70;99.90
16515;DHT22;8370;52.556;7.970;2023-04-24T03:31:36;10.70;99.90
16515;DHT22;8370;52.556;7.970;2023-04-24T03:34:02;10.70;99.90
16515;DHT22;8370;52.556;7.970;2023-04-24T03:36:27;10.70;99.90
16515;DHT22;8370;52.556;7.970;2023-04-24T03:38:53;10.70;99.90
16515;DHT22;8370;52.556;7.970;2023-04-24T03:41:18;10.80;99.90
16515;DHT22;8370;52.556;7.970;2023-04-24T03:43:44;10.70;99.90
16515;DHT22;8370;52.556;7.970;2023-04-24T03:46:10;10.80;99.90
16515;DHT22;8370;52.556;7.970;2023-04-24T03:48:35;10.70;99.90
16515;DHT22;8370;52.556;7.970;2023-04-24T03:51:01;10.80;99.90
16515;DHT22;8370;52.556;7.970;2023-04-24T03:53:26;10.60;99.90
16515;DHT22;8370;52.556;7.970;2023-04-24T03:55:53;10.70;99.90
16515;DHT22;8370;52.556;7.970;2023-04-24T03:58:18;10.60;99.90
16515;DHT22;8370;52.556;7.970;2023-04-24T04:00:44;10.70;99.90
16515;DHT22;8370;52.556;7.970;2023-04-24T04:03:10;10.70;99.90
16515;DHT22;8370;52.556;7.970;2023-04-24T04:05:35;10.70;99.90
16515;DHT22;8370;52.556;7.970;2023-04-24T04:08:01;10.70;99.90
16515;DHT22;8370;52.556;7.970;2023-04-24T04:10:26;10.70;99.90
16515;DHT22;8370;52.556;7.970;2023-04-24T04:12:51;10.70;99.90
16515;DHT22;8370;52.556;7.970;2023-04-24T04:15:17;10.70;99.90
16515;DHT22;8370;52.556;7.970;2023-04-24T04:17:42;10.70;99.90
16515;DHT22;8370;52.556;7.970;2023-04-24T04:20:08;10.60;99.90
16515;DHT22;8370;52.556;7.970;2023-04-24T04:22:37;10.60;99.90
16515;DHT22;8370;52.556;7.970;2023-04-24T04:25:03;10.60;99.90
16515;DHT22;8370;52.556;7.970;2023-04-24T04:27:29;10.60;99.90
16515;DHT22;8370;52.556;7.970;2023-04-24T04:30:00;10.50;99.90
16515;DHT22;8370;52.556;7.970;2023-04-24T04:32:33;10.60;99.90
16515;DHT22;8370;52.556;7.970;2023-04-24T04:35:02;10.60;99.90
16515;DHT22;8370;52.556;7.970;2023-04-24T04:37:28;10.60;99.90
16515;DHT22;8370;52.556;7.970;2023-04-24T04:39:54;10.60;99.90
16515;DHT22;8370;52.556;7.970;2023-04-24T04:42:19;10.60;99.90
16515;DHT22;8370;52.556;7.970;2023-04-24T04:44:45;10.60;99.90
16515;DHT22;8370;52.556;7.970;2023-04-24T04:47:11;10.60;99.90
16515;DHT22;8370;52.556;7.970;2023-04-24T04:49:38;10.60;99.90
16515;DHT22;8370;52.556;7.970;2023-04-24T04:52:04;10.60;99.90
16515;DHT22;8370;52.556;7.970;2023-04-24T04:54:30;10.60;99.90
16515;DHT22;8370;52.556;7.970;2023-04-24T04:56:55;10.50;99.90
16515;DHT22;8370;52.556;7.970;2023-04-24T04:59:22;10.50;99.90
16515;DHT22;8370;52.556;7.970;2023-04-24T05:01:48;10.50;99.90
16515;DHT22;8370;52.556;7.970;2023-04-24T05:04:13;10.40;99.90
16515;DHT22;8370;52.556;7.970;2023-04-24T05:06:39;10.40;99.90
16515;DHT22;8370;52.556;7.970;2023-04-24T05:09:04;10.40;99.90
16515;DHT22;8370;52.556;7.970;2023-04-24T05:11:30;10.40;99.90
16515;DHT22;8370;52.556;7.970;2023-04-24T05:13:55;10.40;99.90
16515;DHT22;8370;52.556;7.970;2023-04-24T05:16:21;10.30;99.90
16515;DHT22;8370;52.556;7.970;2023-04-24T05:18:46;10.40;99.90
16515;DHT22;8370;52.556;7.970;2023-04-24T05:21:12;10.30;99.90
16515;DHT22;8370;52.556;7.970;2023-04-24T05:23:37;10.40;99.90
16515;DHT22;8370;52.556;7.970;2023-04-24T05:26:03;10.40;99.90
16515;DHT22;8370;52.556;7.970;2023-04-24T05:28:28;10.40;99.90
16515;DHT22;8370;52.556;7.970;2023-04-24T05:30:55;10.50;99.90
16515;DHT22;8370;52.556;7.970;2023-04-24T05:33:21;10.50;99.90
16515;DHT22;8370;52.556;7.970;2023-04-24T05:35:47;10.50;99.90
16515;DHT22;8370;52.556;7.970;2023-04-24T05:38:13;10.50;99.90
16515;DHT22;8370;52.556;7.970;2023-04-24T05:43:06;10.50;99.90
16515;DHT22;8370;52.556;7.970;2023-04-24T05:45:32;10.50;99.90
16515;DHT22;8370;52.556;7.970;2023-04-24T05:47:57;10.50;99.90
16515;DHT22;8370;52.556;7.970;2023-04-24T05:50:23;10.50;99.90
16515;DHT22;8370;52.556;7.970;2023-04-24T05:52:48;10.50;99.90
16515;DHT22;8370;52.556;7.970;2023-04-24T05:55:14;10.60;99.90
16515;DHT22;8370;52.556;7.970;2023-04-24T05:57:42;10.50;99.90
16515;DHT22;8370;52.556;7.970;2023-04-24T06:00:09;10.50;99.90
16515;DHT22;8370;52.556;7.970;2023-04-24T06:02:37;10.50;99.90
16515;DHT22;8370;52.556;7.970;2023-04-24T06:05:03;10.50;99.90
16515;DHT22;8370;52.556;7.970;2023-04-24T06:07:30;10.60;99.90
16515;DHT22;8370;52.556;7.970;2023-04-24T06:09:56;10.70;99.90
16515;DHT22;8370;52.556;7.970;2023-04-24T06:12:22;10.70;99.90
16515;DHT22;8370;52.556;7.970;2023-04-24T06:14:47;10.80;99.90
16515;DHT22;8370;52.556;7.970;2023-04-24T06:17:13;10.80;99.90
16515;DHT22;8370;52.556;7.970;2023-04-24T06:19:39;10.80;99.90
16515;DHT22;8370;52.556;7.970;2023-04-24T06:22:04;10.80;99.90
16515;DHT22;8370;52.556;7.970;2023-04-24T06:24:30;10.80;99.90
16515;DHT22;8370;52.556;7.970;2023-04-24T06:26:55;10.80;99.90
16515;DHT22;8370;52.556;7.970;2023-04-24T06:29:22;10.80;99.90
16515;DHT22;8370;52.556;7.970;2023-04-24T06:31:48;10.90;99.90
16515;DHT22;8370;52.556;7.970;2023-04-24T06:34:13;10.80;99.90
16515;DHT22;8370;52.556;7.970;2023-04-24T06:36:39;10.80;99.90
16515;DHT22;8370;52.556;7.970;2023-04-24T06:39:05;10.80;99.90
16515;DHT22;8370;52.556;7.970;2023-04-24T06:41:30;10.80;99.90
16515;DHT22;8370;52.556;7.970;2023-04-24T06:43:56;10.90;99.90
16515;DHT22;8370;52.556;7.970;2023-04-24T06:46:21;10.90;99.90
16515;DHT22;8370;52.556;7.970;2023-04-24T06:48:52;10.90;99.90
16515;DHT22;8370;52.556;7.970;2023-04-24T06:51:17;10.90;99.90
16515;DHT22;8370;52.556;7.970;2023-04-24T06:53:43;11.10;99.90
16515;DHT22;8370;52.556;7.970;2023-04-24T06:56:10;11.20;99.90
16515;DHT22;8370;52.556;7.970;2023-04-24T06:58:35;11.20;99.90
16515;DHT22;8370;52.556;7.970;2023-04-24T07:01:01;11.30;99.90
16515;DHT22;8370;52.556;7.970;2023-04-24T07:03:26;11.20;99.90
16515;DHT22;8370;52.556;7.970;2023-04-24T07:05:52;11.30;99.90
16515;DHT22;8370;52.556;7.970;2023-04-24T07:08:18;11.30;99.90
16515;DHT22;8370;52.556;7.970;2023-04-24T07:10:45;11.30;99.90
16515;DHT22;8370;52.556;7.970;2023-04-24T07:13:11;11.40;99.90
16515;DHT22;8370;52.556;7.970;2023-04-24T07:15:36;11.50;99.90
16515;DHT22;8370;52.556;7.970;2023-04-24T07:18:02;11.50;99.90
16515;DHT22;8370;52.556;7.970;2023-04-24T07:20:27;11.60;99.90
16515;DHT22;8370;52.556;7.970;2023-04-24T07:22:53;11.60;99.90
16515;DHT22;8370;52.556;7.970;2023-04-24T07:25:19;11.60;99.90
16515;DHT22;8370;52.556;7.970;2023-04-24T07:27:45;11.60;99.90
16515;DHT22;8370;52.556;7.970;2023-04-24T07:30:10;11.60;99.90
16515;DHT22;8370;52.556;7.970;2023-04-24T07:32:36;11.60;99.90
16515;DHT22;8370;52.556;7.970;2023-04-24T07:35:02;11.60;99.90
16515;DHT22;8370;52.556;7.970;2023-04-24T07:37:28;11.60;99.90
16515;DHT22;8370;52.556;7.970;2023-04-24T07:39:54;11.50;99.90
16515;DHT22;8370;52.556;7.970;2023-04-24T07:42:19;11.60;99.90
16515;DHT22;8370;52.556;7.970;2023-04-24T07:44:45;11.70;99.90
16515;DHT22;8370;52.556;7.970;2023-04-24T07:47:13;11.80;99.90
16515;DHT22;8370;52.556;7.970;2023-04-24T07:49:41;11.90;99.90
16515;DHT22;8370;52.556;7.970;2023-04-24T07:52:07;12.00;99.90
16515;DHT22;8370;52.556;7.970;2023-04-24T07:54:32;12.00;99.90
16515;DHT22;8370;52.556;7.970;2023-04-24T07:56:58;12.00;99.90
16515;DHT22;8370;52.556;7.970;2023-04-24T07:59:23;12.10;99.90
16515;DHT22;8370;52.556;7.970;2023-04-24T08:01:49;12.20;99.90
16515;DHT22;8370;52.556;7.970;2023-04-24T08:04:15;12.10;99.90
16515;DHT22;8370;52.556;7.970;2023-04-24T08:06:40;12.10;99.90
16515;DHT22;8370;52.556;7.970;2023-04-24T08:09:06;12.00;99.90
16515;DHT22;8370;52.556;7.970;2023-04-24T08:11:31;11.90;99.90
16515;DHT22;8370;52.556;7.970;2023-04-24T08:13:57;11.80;99.90
16515;DHT22;8370;52.556;7.970;2023-04-24T08:16:22;11.70;99.90
16515;DHT22;8370;52.556;7.970;2023-04-24T08:18:51;11.60;99.90
16515;DHT22;8370;52.556;7.970;2023-04-24T08:21:17;11.60;99.90
16515;DHT22;8370;52.556;7.970;2023-04-24T08:23:44;11.80;99.90
16515;DHT22;8370;52.556;7.970;2023-04-24T08:26:10;11.70;99.90
16515;DHT22;8370;52.556;7.970;2023-04-24T08:28:36;11.60;99.90
16515;DHT22;8370;52.556;7.970;2023-04-24T08:31:02;11.60;99.90
16515;DHT22;8370;52.556;7.970;2023-04-24T08:33:27;11.50;99.90
16515;DHT22;8370;52.556;7.970;2023-04-24T08:36:02;11.50;99.90
16515;DHT22;8370;52.556;7.970;2023-04-24T08:38:28;11.50;99.90
16515;DHT22;8370;52.556;7.970;2023-04-24T08:40:54;11.60;99.90
16515;DHT22;8370;52.556;7.970;2023-04-24T08:43:25;11.60;99.90
16515;DHT22;8370;52.556;7.970;2023-04-24T08:45:52;11.60;99.90
16515;DHT22;8370;52.556;7.970;2023-04-24T08:48:18;11.60;99.90
16515;DHT22;8370;52.556;7.970;2023-04-24T08:50:44;11.70;99.90
16515;DHT22;8370;52.556;7.970;2023-04-24T08:53:10;11.70;99.90
16515;DHT22;8370;52.556;7.970;2023-04-24T08:55:37;11.70;99.90
16515;DHT22;8370;52.556;7.970;2023-04-24T08:58:03;11.60;99.90
16515;DHT22;8370;52.556;7.970;2023-04-24T09:00:30;11.60;99.90
16515;DHT22;8370;52.556;7.970;2023-04-24T09:02:56;11.60;99.90
16515;DHT22;8370;52.556;7.970;2023-04-24T09:05:22;11.50;99.90
16515;DHT22;8370;52.556;7.970;2023-04-24T09:07:56;11.40;99.90
16515;DHT22;8370;52.556;7.970;2023-04-24T09:10:23;11.40;99.90
16515;DHT22;8370;52.556;7.970;2023-04-24T09:12:50;11.30;99.90
16515;DHT22;8370;52.556;7.970;2023-04-24T09:15:16;11.20;99.90
16515;DHT22;8370;52.556;7.970;2023-04-24T09:17:42;11.30;99.90
16515;DHT22;8370;52.556;7.970;2023-04-24T09:20:08;11.40;99.90
16515;DHT22;8370;52.556;7.970;2023-04-24T09:22:34;11.60;99.90
16515;DHT22;8370;52.556;7.970;2023-04-24T09:25:05;11.70;99.90
16515;DHT22;8370;52.556;7.970;2023-04-24T09:27:32;11.90;99.90
16515;DHT22;8370;52.556;7.970;2023-04-24T09:29:59;11.90;99.90
16515;DHT22;8370;52.556;7.970;2023-04-24T09:32:25;12.10;99.90
16515;DHT22;8370;52.556;7.970;2023-04-24T09:35:12;12.10;99.90
16515;DHT22;8370;52.556;7.970;2023-04-24T09:37:42;12.10;99.90
16515;DHT22;8370;52.556;7.970;2023-04-24T09:42:36;11.70;99.90
16515;DHT22;8370;52.556;7.970;2023-04-24T09:45:02;11.60;99.90
16515;DHT22;8370;52.556;7.970;2023-04-24T09:47:38;11.50;99.90
16515;DHT22;8370;52.556;7.970;2023-04-24T09:50:15;11.40;99.90
16515;DHT22;8370;52.556;7.970;2023-04-24T09:52:46;11.30;99.90
16515;DHT22;8370;52.556;7.970;2023-04-24T09:55:20;11.20;99.90
16515;DHT22;8370;52.556;7.970;2023-04-24T09:57:53;11.20;99.90
16515;DHT22;8370;52.556;7.970;2023-04-24T10:00:27;11.20;99.90
16515;DHT22;8370;52.556;7.970;2023-04-24T10:05:30;11.30;99.90
16515;DHT22;8370;52.556;7.970;2023-04-24T10:07:57;11.20;99.90
16515;DHT22;8370;52.556;7.970;2023-04-24T10:10:23;11.00;99.90
16515;DHT22;8370;52.556;7.970;2023-04-24T10:12:49;10.80;99.90
16515;DHT22;8370;52.556;7.970;2023-04-24T10:15:15;10.70;99.90
16515;DHT22;8370;52.556;7.970;2023-04-24T10:17:50;10.50;99.90
16515;DHT22;8370;52.556;7.970;2023-04-24T10:20:28;10.50;99.90
16515;DHT22;8370;52.556;7.970;2023-04-24T10:22:56;10.40;99.90
16515;DHT22;8370;52.556;7.970;2023-04-24T10:25:30;10.30;99.90
16515;DHT22;8370;52.556;7.970;2023-04-24T10:27:57;10.20;99.90
16515;DHT22;8370;52.556;7.970;2023-04-24T10:30:26;10.00;99.90
16515;DHT22;8370;52.556;7.970;2023-04-24T10:32:52;9.80;99.90
16515;DHT22;8370;52.556;7.970;2023-04-24T10:35:18;9.60;99.90
16515;DHT22;8370;52.556;7.970;2023-04-24T10:38:02;9.50;99.90
16515;DHT22;8370;52.556;7.970;2023-04-24T10:40:33;9.50;99.90
16515;DHT22;8370;52.556;7.970;2023-04-24T10:43:02;9.30;99.90
16515;DHT22;8370;52.556;7.970;2023-04-24T10:45:27;9.20;99.90
16515;DHT22;8370;52.556;7.970;2023-04-24T10:48:02;9.10;99.90
16515;DHT22;8370;52.556;7.970;2023-04-24T10:50:30;9.00;99.90
16515;DHT22;8370;52.556;7.970;2023-04-24T10:53:13;9.00;99.90
16515;DHT22;8370;52.556;7.970;2023-04-24T10:55:48;8.90;99.90
16515;DHT22;8370;52.556;7.970;2023-04-24T10:58:14;8.90;99.90
16515;DHT22;8370;52.556;7.970;2023-04-24T11:00:42;8.90;99.90
16515;DHT22;8370;52.556;7.970;2023-04-24T11:03:25;8.90;99.90
16515;DHT22;8370;52.556;7.970;2023-04-24T11:08:27;8.80;99.90
16515;DHT22;8370;52.556;7.970;2023-04-24T11:11:00;8.90;99.90
16515;DHT22;8370;52.556;7.970;2023-04-24T11:14:00;8.90;99.90
16515;DHT22;8370;52.556;7.970;2023-04-24T11:18:59;8.90;99.90
16515;DHT22;8370;52.556;7.970;2023-04-24T11:21:25;8.90;99.90
16515;DHT22;8370;52.556;7.970;2023-04-24T11:23:51;8.90;99.90
16515;DHT22;8370;52.556;7.970;2023-04-24T11:26:19;8.80;99.90
16515;DHT22;8370;52.556;7.970;2023-04-24T11:28:50;8.80;99.90
16515;DHT22;8370;52.556;7.970;2023-04-24T11:31:35;8.80;99.90
16515;DHT22;8370;52.556;7.970;2023-04-24T11:34:13;8.80;99.90
16515;DHT22;8370;52.556;7.970;2023-04-24T11:36:40;8.70;99.90
16515;DHT22;8370;52.556;7.970;2023-04-24T11:39:07;8.60;99.90
16515;DHT22;8370;52.556;7.970;2023-04-24T11:41:34;8.50;99.90
16515;DHT22;8370;52.556;7.970;2023-04-24T11:44:00;8.30;99.90
16515;DHT22;8370;52.556;7.970;2023-04-24T11:46:30;8.30;99.90
16515;DHT22;8370;52.556;7.970;2023-04-24T11:48:57;8.30;99.90
16515;DHT22;8370;52.556;7.970;2023-04-24T11:51:24;8.30;99.90
16515;DHT22;8370;52.556;7.970;2023-04-24T11:53:51;8.30;99.90
16515;DHT22;8370;52.556;7.970;2023-04-24T11:56:23;8.20;99.90
16515;DHT22;8370;52.556;7.970;2023-04-24T11:58:52;8.30;99.90
16515;DHT22;8370;52.556;7.970;2023-04-24T12:01:18;8.30;99.90
16515;DHT22;8370;52.556;7.970;2023-04-24T12:03:48;8.30;99.90
16515;DHT22;8370;52.556;7.970;2023-04-24T12:06:13;8.40;99.90
16515;DHT22;8370;52.556;7.970;2023-04-24T12:08:39;8.40;99.90
16515;DHT22;8370;52.556;7.970;2023-04-24T12:11:06;8.30;99.90
16515;DHT22;8370;52.556;7.970;2023-04-24T12:13:33;8.20;99.90
16515;DHT22;8370;52.556;7.970;2023-04-24T12:15:59;8.10;99.90
16515;DHT22;8370;52.556;7.970;2023-04-24T12:18:26;8.10;99.90
16515;DHT22;8370;52.556;7.970;2023-04-24T12:20:51;8.20;99.90
16515;DHT22;8370;52.556;7.970;2023-04-24T12:23:27;8.20;99.90
16515;DHT22;8370;52.556;7.970;2023-04-24T12:26:00;8.30;99.90
16515;DHT22;8370;52.556;7.970;2023-04-24T12:28:38;8.30;99.90
16515;DHT22;8370;52.556;7.970;2023-04-24T12:31:04;8.30;99.90
16515;DHT22;8370;52.556;7.970;2023-04-24T12:33:34;8.30;99.90
16515;DHT22;8370;52.556;7.970;2023-04-24T12:36:00;8.30;99.90
16515;DHT22;8370;52.556;7.970;2023-04-24T12:38:26;8.30;99.90
16515;DHT22;8370;52.556;7.970;2023-04-24T12:41:13;8.30;99.90
16515;DHT22;8370;52.556;7.970;2023-04-24T12:43:53;8.20;99.90
16515;DHT22;8370;52.556;7.970;2023-04-24T12:46:19;8.20;99.90
16515;DHT22;8370;52.556;7.970;2023-04-24T12:48:45;8.20;99.90
16515;DHT22;8370;52.556;7.970;2023-04-24T12:51:10;8.20;99.90
16515;DHT22;8370;52.556;7.970;2023-04-24T12:53:36;8.10;99.90
16515;DHT22;8370;52.556;7.970;2023-04-24T12:56:01;8.10;99.90
16515;DHT22;8370;52.556;7.970;2023-04-24T12:58:27;8.10;99.90
16515;DHT22;8370;52.556;7.970;2023-04-24T13:00:52;8.10;99.90
16515;DHT22;8370;52.556;7.970;2023-04-24T13:03:18;8.10;99.90
16515;DHT22;8370;52.556;7.970;2023-04-24T13:05:44;8.20;99.90
16515;DHT22;8370;52.556;7.970;2023-04-24T13:08:10;8.20;99.90
16515;DHT22;8370;52.556;7.970;2023-04-24T13:10:35;8.20;99.90
16515;DHT22;8370;52.556;7.970;2023-04-24T13:13:01;8.30;99.90
16515;DHT22;8370;52.556;7.970;2023-04-24T13:15:26;8.20;99.90
16515;DHT22;8370;52.556;7.970;2023-04-24T13:17:52;8.20;99.90
16515;DHT22;8370;52.556;7.970;2023-04-24T13:20:18;8.30;99.90
16515;DHT22;8370;52.556;7.970;2023-04-24T13:22:43;8.30;99.90
16515;DHT22;8370;52.556;7.970;2023-04-24T13:25:09;8.30;99.90
16515;DHT22;8370;52.556;7.970;2023-04-24T13:27:35;8.20;99.90
16515;DHT22;8370;52.556;7.970;2023-04-24T13:30:01;8.30;99.90
16515;DHT22;8370;52.556;7.970;2023-04-24T13:32:26;8.30;99.90
16515;DHT22;8370;52.556;7.970;2023-04-24T13:34:52;8.30;99.90
16515;DHT22;8370;52.556;7.970;2023-04-24T13:37:18;8.30;99.90
16515;DHT22;8370;52.556;7.970;2023-04-24T13:39:43;8.30;99.90
16515;DHT22;8370;52.556;7.970;2023-04-24T13:42:09;8.30;99.90
16515;DHT22;8370;52.556;7.970;2023-04-24T13:44:35;8.40;99.90
16515;DHT22;8370;52.556;7.970;2023-04-24T13:47:00;8.40;99.90
16515;DHT22;8370;52.556;7.970;2023-04-24T13:49:26;8.40;99.90
16515;DHT22;8370;52.556;7.970;2023-04-24T13:51:53;8.40;99.90
16515;DHT22;8370;52.556;7.970;2023-04-24T13:54:19;8.40;99.90
16515;DHT22;8370;52.556;7.970;2023-04-24T13:56:44;8.40;99.90
16515;DHT22;8370;52.556;7.970;2023-04-24T13:59:12;8.40;99.90
16515;DHT22;8370;52.556;7.970;2023-04-24T14:01:37;8.30;99.90
16515;DHT22;8370;52.556;7.970;2023-04-24T14:04:03;8.30;99.90
16515;DHT22;8370;52.556;7.970;2023-04-24T14:06:28;8.30;99.90
16515;DHT22;8370;52.556;7.970;2023-04-24T14:08:54;8.20;99.90
16515;DHT22;8370;52.556;7.970;2023-04-24T14:11:19;8.00;99.90
16515;DHT22;8370;52.556;7.970;2023-04-24T14:13:45;8.00;99.90
16515;DHT22;8370;52.556;7.970;2023-04-24T14:16:11;8.10;99.90
16515;DHT22;8370;52.556;7.970;2023-04-24T14:18:37;8.10;99.90
16515;DHT22;8370;52.556;7.970;2023-04-24T14:21:04;8.20;99.90
16515;DHT22;8370;52.556;7.970;2023-04-24T14:23:29;8.20;99.90
16515;DHT22;8370;52.556;7.970;2023-04-24T14:25:56;8.20;99.90
16515;DHT22;8370;52.556;7.970;2023-04-24T14:28:22;8.20;99.90
16515;DHT22;8370;52.556;7.970;2023-04-24T14:30:47;8.20;99.90
16515;DHT22;8370;52.556;7.970;2023-04-24T14:33:13;8.10;99.90
16515;DHT22;8370;52.556;7.970;2023-04-24T14:35:40;8.10;99.90
16515;DHT22;8370;52.556;7.970;2023-04-24T14:38:07;8.00;99.90
16515;DHT22;8370;52.556;7.970;2023-04-24T14:40:32;8.00;99.90
16515;DHT22;8370;52.556;7.970;2023-04-24T14:42:58;8.00;99.90
16515;DHT22;8370;52.556;7.970;2023-04-24T14:45:25;8.00;99.90
16515;DHT22;8370;52.556;7.970;2023-04-24T14:47:50;8.00;99.90
16515;DHT22;8370;52.556;7.970;2023-04-24T14:50:16;7.90;99.90
16515;DHT22;8370;52.556;7.970;2023-04-24T14:52:42;7.90;99.90
16515;DHT22;8370;52.556;7.970;2023-04-24T14:55:07;7.90;99.90
16515;DHT22;8370;52.556;7.970;2023-04-24T14:57:34;7.90;99.90
16515;DHT22;8370;52.556;7.970;2023-04-24T15:00:00;8.00;99.90
16515;DHT22;8370;52.556;7.970;2023-04-24T15:02:25;7.90;99.90
16515;DHT22;8370;52.556;7.970;2023-04-24T15:04:51;7.90;99.90
16515;DHT22;8370;52.556;7.970;2023-04-24T15:07:16;8.00;99.90
16515;DHT22;8370;52.556;7.970;2023-04-24T15:09:42;7.90;99.90
16515;DHT22;8370;52.556;7.970;2023-04-24T15:12:08;8.00;99.90
16515;DHT22;8370;52.556;7.970;2023-04-24T15:14:33;8.00;99.90
16515;DHT22;8370;52.556;7.970;2023-04-24T15:16:59;8.00;99.90
16515;DHT22;8370;52.556;7.970;2023-04-24T15:19:24;8.00;99.90
16515;DHT22;8370;52.556;7.970;2023-04-24T15:21:50;8.10;99.90
16515;DHT22;8370;52.556;7.970;2023-04-24T15:24:15;8.10;99.90
16515;DHT22;8370;52.556;7.970;2023-04-24T15:26:41;8.10;99.90
16515;DHT22;8370;52.556;7.970;2023-04-24T15:29:06;8.10;99.90
16515;DHT22;8370;52.556;7.970;2023-04-24T15:31:32;8.00;99.90
16515;DHT22;8370;52.556;7.970;2023-04-24T15:33:57;7.80;99.90
16515;DHT22;8370;52.556;7.970;2023-04-24T15:36:23;7.80;99.90
16515;DHT22;8370;52.556;7.970;2023-04-24T15:38:49;7.80;99.90
16515;DHT22;8370;52.556;7.970;2023-04-24T15:41:15;7.90;99.90
16515;DHT22;8370;52.556;7.970;2023-04-24T15:43:40;7.90;99.90
16515;DHT22;8370;52.556;7.970;2023-04-24T15:46:07;7.80;99.90
16515;DHT22;8370;52.556;7.970;2023-04-24T15:48:32;7.80;99.90
16515;DHT22;8370;52.556;7.970;2023-04-24T15:50:58;7.80;99.90
16515;DHT22;8370;52.556;7.970;2023-04-24T15:53:26;7.90;99.90
16515;DHT22;8370;52.556;7.970;2023-04-24T15:55:53;7.90;99.90
16515;DHT22;8370;52.556;7.970;2023-04-24T15:58:21;7.90;99.90
16515;DHT22;8370;52.556;7.970;2023-04-24T16:00:47;7.80;99.90
16515;DHT22;8370;52.556;7.970;2023-04-24T16:03:13;7.80;99.90